logo
Rechercher aéroport 
image banner adimage banner adimage banner ad
image banner ad

SIJB - Jk Business Center

Situé à Palmas, Brazil

ICAO - SIJB, IATA -

Données fournies par Airmate  

Information générale

Coordonnées: S10°11'6" W48°20'15"
Élévation : 1099 feet MSL.
Variation magnétique : -21.474828017° East
Voir autres Aéroports à Tocatins

Données opérationnelles

Special qualification required
Heure actuelle UTC:
Heure actuelle locale:
Météo à : SBPJ - Brigadeiro Lysias Rodrigues ( 12 km )
METAR: SBPJ 251600Z 12011KT CAVOK 34/25 Q1013
TAF: TAF SBPJ 251630Z 2518/2618 23005KT 9999 FEW020 TN22/2608Z TX34/2618Z BECMG 2521/2523 12005KT BECMG 2612/2614 23005KT RMK PGW
Voir NOTAMs / SUP AIP / TFR affectant cet aéroport [VIEW]
Fréquences de communication: [VIEW]

Pistes:

Coordonnées de l'aéroport

Adresse: Palmas Brazil

Vue satellite de SIJB